sensor_id;sensor_type;location;lat;lon;timestamp;temperature;humidity
33269;DHT22;19640;50.944;5.260;2022-08-01T00:01:04;21.10;99.90
33269;DHT22;19640;50.944;5.260;2022-08-01T00:03:30;21.10;99.90
33269;DHT22;19640;50.944;5.260;2022-08-01T00:05:56;21.10;99.90
33269;DHT22;19640;50.944;5.260;2022-08-01T00:08:21;21.00;99.90
33269;DHT22;19640;50.944;5.260;2022-08-01T00:10:47;20.90;99.90
33269;DHT22;19640;50.944;5.260;2022-08-01T00:13:13;20.90;99.90
33269;DHT22;19640;50.944;5.260;2022-08-01T00:15:38;20.80;99.90
33269;DHT22;19640;50.944;5.260;2022-08-01T00:18:04;21.00;99.90
33269;DHT22;19640;50.944;5.260;2022-08-01T00:20:30;21.20;99.90
33269;DHT22;19640;50.944;5.260;2022-08-01T00:22:55;21.30;99.90
33269;DHT22;19640;50.944;5.260;2022-08-01T00:25:21;21.50;99.90
33269;DHT22;19640;50.944;5.260;2022-08-01T00:27:46;21.80;99.90
33269;DHT22;19640;50.944;5.260;2022-08-01T00:30:12;21.80;99.90
33269;DHT22;19640;50.944;5.260;2022-08-01T00:32:38;21.80;99.90
33269;DHT22;19640;50.944;5.260;2022-08-01T00:35:03;21.80;99.90
33269;DHT22;19640;50.944;5.260;2022-08-01T00:37:29;21.80;99.90
33269;DHT22;19640;50.944;5.260;2022-08-01T00:39:55;21.80;99.90
33269;DHT22;19640;50.944;5.260;2022-08-01T00:42:21;21.90;99.90
33269;DHT22;19640;50.944;5.260;2022-08-01T00:44:46;21.90;99.90
33269;DHT22;19640;50.944;5.260;2022-08-01T00:47:12;21.70;99.90
33269;DHT22;19640;50.944;5.260;2022-08-01T00:49:38;21.50;99.90
33269;DHT22;19640;50.944;5.260;2022-08-01T00:52:05;21.60;99.90
33269;DHT22;19640;50.944;5.260;2022-08-01T00:54:31;21.40;99.90
33269;DHT22;19640;50.944;5.260;2022-08-01T00:56:57;21.40;99.90
33269;DHT22;19640;50.944;5.260;2022-08-01T00:59:23;21.70;99.90
33269;DHT22;19640;50.944;5.260;2022-08-01T01:01:49;21.70;99.90
33269;DHT22;19640;50.944;5.260;2022-08-01T01:04:16;21.70;99.90
33269;DHT22;19640;50.944;5.260;2022-08-01T01:15:02;21.60;99.90
33269;DHT22;19640;50.944;5.260;2022-08-01T01:17:45;21.40;99.90
33269;DHT22;19640;50.944;5.260;2022-08-01T01:20:13;21.20;99.90
33269;DHT22;19640;50.944;5.260;2022-08-01T01:22:47;21.30;99.90
33269;DHT22;19640;50.944;5.260;2022-08-01T01:30:44;21.20;99.90
33269;DHT22;19640;50.944;5.260;2022-08-01T01:33:12;21.10;99.90
33269;DHT22;19640;50.944;5.260;2022-08-01T01:35:45;21.10;99.90
33269;DHT22;19640;50.944;5.260;2022-08-01T01:40:42;21.20;99.90
33269;DHT22;19640;50.944;5.260;2022-08-01T01:43:10;21.20;99.90
33269;DHT22;19640;50.944;5.260;2022-08-01T01:45:37;21.20;99.90
33269;DHT22;19640;50.944;5.260;2022-08-01T01:48:05;21.10;99.90
33269;DHT22;19640;50.944;5.260;2022-08-01T01:50:32;21.10;99.90
33269;DHT22;19640;50.944;5.260;2022-08-01T01:52:59;21.20;99.90
33269;DHT22;19640;50.944;5.260;2022-08-01T01:55:26;21.20;99.90
33269;DHT22;19640;50.944;5.260;2022-08-01T01:57:53;21.00;99.90
33269;DHT22;19640;50.944;5.260;2022-08-01T02:00:21;21.00;99.90
33269;DHT22;19640;50.944;5.260;2022-08-01T02:02:48;21.10;99.90
33269;DHT22;19640;50.944;5.260;2022-08-01T02:05:15;21.00;99.90
33269;DHT22;19640;50.944;5.260;2022-08-01T02:07:41;21.00;99.90
33269;DHT22;19640;50.944;5.260;2022-08-01T02:10:09;21.10;99.90
33269;DHT22;19640;50.944;5.260;2022-08-01T02:12:37;21.30;99.90
33269;DHT22;19640;50.944;5.260;2022-08-01T02:15:05;21.40;99.90
33269;DHT22;19640;50.944;5.260;2022-08-01T02:17:31;21.50;99.90
33269;DHT22;19640;50.944;5.260;2022-08-01T02:19:57;21.60;99.90
33269;DHT22;19640;50.944;5.260;2022-08-01T02:22:29;21.60;99.90
33269;DHT22;19640;50.944;5.260;2022-08-01T02:27:54;21.50;99.90
33269;DHT22;19640;50.944;5.260;2022-08-01T02:30:24;21.30;99.90
33269;DHT22;19640;50.944;5.260;2022-08-01T02:32:56;21.10;99.90
33269;DHT22;19640;50.944;5.260;2022-08-01T02:35:26;21.00;99.90
33269;DHT22;19640;50.944;5.260;2022-08-01T02:37:53;20.80;99.90
33269;DHT22;19640;50.944;5.260;2022-08-01T02:40:19;20.90;99.90
33269;DHT22;19640;50.944;5.260;2022-08-01T02:42:49;20.90;99.90
33269;DHT22;19640;50.944;5.260;2022-08-01T02:45:17;21.20;99.90
33269;DHT22;19640;50.944;5.260;2022-08-01T02:47:44;21.40;99.90
33269;DHT22;19640;50.944;5.260;2022-08-01T02:50:12;21.40;99.90
33269;DHT22;19640;50.944;5.260;2022-08-01T02:52:39;21.30;99.90
33269;DHT22;19640;50.944;5.260;2022-08-01T02:55:06;21.40;99.90
33269;DHT22;19640;50.944;5.260;2022-08-01T02:57:33;21.40;99.90
33269;DHT22;19640;50.944;5.260;2022-08-01T03:00:00;21.60;99.90
33269;DHT22;19640;50.944;5.260;2022-08-01T03:02:26;21.90;99.90
33269;DHT22;19640;50.944;5.260;2022-08-01T03:04:53;21.70;99.90
33269;DHT22;19640;50.944;5.260;2022-08-01T03:07:19;21.70;99.90
33269;DHT22;19640;50.944;5.260;2022-08-01T03:09:46;21.60;99.90
33269;DHT22;19640;50.944;5.260;2022-08-01T03:12:22;21.40;99.90
33269;DHT22;19640;50.944;5.260;2022-08-01T03:14:52;21.30;99.90
33269;DHT22;19640;50.944;5.260;2022-08-01T03:17:22;21.20;99.90
33269;DHT22;19640;50.944;5.260;2022-08-01T03:19:49;21.20;99.90
33269;DHT22;19640;50.944;5.260;2022-08-01T03:22:16;21.10;99.90
33269;DHT22;19640;50.944;5.260;2022-08-01T03:24:44;21.10;99.90
33269;DHT22;19640;50.944;5.260;2022-08-01T03:27:11;21.10;99.90
33269;DHT22;19640;50.944;5.260;2022-08-01T03:29:40;21.20;99.90
33269;DHT22;19640;50.944;5.260;2022-08-01T03:32:07;21.10;99.90
33269;DHT22;19640;50.944;5.260;2022-08-01T03:34:34;21.00;99.90
33269;DHT22;19640;50.944;5.260;2022-08-01T03:37:14;21.00;99.90
33269;DHT22;19640;50.944;5.260;2022-08-01T03:40:35;21.20;99.90
33269;DHT22;19640;50.944;5.260;2022-08-01T03:42:48;21.40;99.90
33269;DHT22;19640;50.944;5.260;2022-08-01T03:45:36;21.30;99.90
33269;DHT22;19640;50.944;5.260;2022-08-01T03:48:09;21.20;99.90
33269;DHT22;19640;50.944;5.260;2022-08-01T03:50:35;21.20;99.90
33269;DHT22;19640;50.944;5.260;2022-08-01T03:53:02;21.20;99.90
33269;DHT22;19640;50.944;5.260;2022-08-01T03:55:30;21.20;99.90
33269;DHT22;19640;50.944;5.260;2022-08-01T03:57:57;21.10;99.90
33269;DHT22;19640;50.944;5.260;2022-08-01T04:00:23;21.10;99.90
33269;DHT22;19640;50.944;5.260;2022-08-01T04:02:50;21.00;99.90
33269;DHT22;19640;50.944;5.260;2022-08-01T04:05:17;21.20;99.90
33269;DHT22;19640;50.944;5.260;2022-08-01T04:07:50;21.40;99.90
33269;DHT22;19640;50.944;5.260;2022-08-01T04:10:22;21.40;99.90
33269;DHT22;19640;50.944;5.260;2022-08-01T04:12:48;21.60;99.90
33269;DHT22;19640;50.944;5.260;2022-08-01T04:15:13;21.60;99.90
33269;DHT22;19640;50.944;5.260;2022-08-01T04:17:39;21.40;99.90
33269;DHT22;19640;50.944;5.260;2022-08-01T04:20:05;21.00;99.90
33269;DHT22;19640;50.944;5.260;2022-08-01T04:22:31;20.90;99.90
33269;DHT22;19640;50.944;5.260;2022-08-01T04:24:58;21.00;99.90
33269;DHT22;19640;50.944;5.260;2022-08-01T04:27:37;20.90;99.90
33269;DHT22;19640;50.944;5.260;2022-08-01T04:30:04;21.00;99.90
33269;DHT22;19640;50.944;5.260;2022-08-01T04:32:34;20.90;99.90
33269;DHT22;19640;50.944;5.260;2022-08-01T04:35:06;20.80;99.90
33269;DHT22;19640;50.944;5.260;2022-08-01T04:37:32;20.70;99.90
33269;DHT22;19640;50.944;5.260;2022-08-01T04:40:00;20.70;99.90
33269;DHT22;19640;50.944;5.260;2022-08-01T04:42:26;20.80;99.90
33269;DHT22;19640;50.944;5.260;2022-08-01T04:44:53;20.90;99.90
33269;DHT22;19640;50.944;5.260;2022-08-01T04:47:18;21.00;99.90
33269;DHT22;19640;50.944;5.260;2022-08-01T04:49:45;21.10;99.90
33269;DHT22;19640;50.944;5.260;2022-08-01T04:52:11;21.20;99.90
33269;DHT22;19640;50.944;5.260;2022-08-01T04:54:37;21.20;99.90
33269;DHT22;19640;50.944;5.260;2022-08-01T04:57:04;21.20;99.90
33269;DHT22;19640;50.944;5.260;2022-08-01T04:59:31;21.30;99.90
33269;DHT22;19640;50.944;5.260;2022-08-01T05:04:33;21.20;99.90
33269;DHT22;19640;50.944;5.260;2022-08-01T05:07:00;21.30;99.90
33269;DHT22;19640;50.944;5.260;2022-08-01T05:09:26;21.30;99.90
33269;DHT22;19640;50.944;5.260;2022-08-01T05:11:51;21.50;99.90
33269;DHT22;19640;50.944;5.260;2022-08-01T05:14:17;21.70;99.90
33269;DHT22;19640;50.944;5.260;2022-08-01T05:16:44;21.50;99.90
33269;DHT22;19640;50.944;5.260;2022-08-01T05:19:09;21.70;99.90
33269;DHT22;19640;50.944;5.260;2022-08-01T05:21:35;21.50;99.90
33269;DHT22;19640;50.944;5.260;2022-08-01T05:24:01;21.30;99.90
33269;DHT22;19640;50.944;5.260;2022-08-01T05:26:27;21.10;99.90
33269;DHT22;19640;50.944;5.260;2022-08-01T05:28:53;20.90;99.90
33269;DHT22;19640;50.944;5.260;2022-08-01T05:31:18;20.80;99.90
33269;DHT22;19640;50.944;5.260;2022-08-01T05:33:44;20.60;99.90
33269;DHT22;19640;50.944;5.260;2022-08-01T05:36:10;20.60;99.90
33269;DHT22;19640;50.944;5.260;2022-08-01T05:38:35;20.60;99.90
33269;DHT22;19640;50.944;5.260;2022-08-01T05:41:01;20.60;99.90
33269;DHT22;19640;50.944;5.260;2022-08-01T05:43:27;20.50;99.90
33269;DHT22;19640;50.944;5.260;2022-08-01T05:45:52;20.50;99.90
33269;DHT22;19640;50.944;5.260;2022-08-01T05:48:18;20.50;99.90
33269;DHT22;19640;50.944;5.260;2022-08-01T05:50:43;20.50;99.90
33269;DHT22;19640;50.944;5.260;2022-08-01T05:53:09;20.60;99.90
33269;DHT22;19640;50.944;5.260;2022-08-01T05:55:35;20.60;99.90
33269;DHT22;19640;50.944;5.260;2022-08-01T05:58:01;20.60;99.90
33269;DHT22;19640;50.944;5.260;2022-08-01T06:00:27;20.60;99.90
33269;DHT22;19640;50.944;5.260;2022-08-01T06:02:52;20.70;99.90
33269;DHT22;19640;50.944;5.260;2022-08-01T06:05:18;20.70;99.90
33269;DHT22;19640;50.944;5.260;2022-08-01T06:07:44;20.70;99.90
33269;DHT22;19640;50.944;5.260;2022-08-01T06:10:10;20.70;99.90
33269;DHT22;19640;50.944;5.260;2022-08-01T06:12:36;20.70;99.90
33269;DHT22;19640;50.944;5.260;2022-08-01T06:15:03;20.60;99.90
33269;DHT22;19640;50.944;5.260;2022-08-01T06:17:29;20.70;99.90
33269;DHT22;19640;50.944;5.260;2022-08-01T06:19:54;20.80;99.90
33269;DHT22;19640;50.944;5.260;2022-08-01T06:22:21;20.70;99.90
33269;DHT22;19640;50.944;5.260;2022-08-01T06:24:47;20.70;99.90
33269;DHT22;19640;50.944;5.260;2022-08-01T06:27:12;20.70;99.90
33269;DHT22;19640;50.944;5.260;2022-08-01T06:29:38;20.40;99.90
33269;DHT22;19640;50.944;5.260;2022-08-01T06:32:04;20.10;99.90
33269;DHT22;19640;50.944;5.260;2022-08-01T06:34:29;20.20;99.90
33269;DHT22;19640;50.944;5.260;2022-08-01T06:36:55;20.40;99.90
33269;DHT22;19640;50.944;5.260;2022-08-01T06:39:20;20.30;99.90
33269;DHT22;19640;50.944;5.260;2022-08-01T06:41:46;20.20;99.90
33269;DHT22;19640;50.944;5.260;2022-08-01T06:44:15;20.40;99.90
33269;DHT22;19640;50.944;5.260;2022-08-01T06:46:40;20.50;99.90
33269;DHT22;19640;50.944;5.260;2022-08-01T06:49:06;20.80;99.90
33269;DHT22;19640;50.944;5.260;2022-08-01T06:51:31;20.50;99.90
33269;DHT22;19640;50.944;5.260;2022-08-01T06:53:57;20.90;99.90
33269;DHT22;19640;50.944;5.260;2022-08-01T06:56:29;20.80;99.90
33269;DHT22;19640;50.944;5.260;2022-08-01T06:58:55;21.10;99.90
33269;DHT22;19640;50.944;5.260;2022-08-01T07:01:29;21.40;99.90
33269;DHT22;19640;50.944;5.260;2022-08-01T07:03:54;21.60;99.90
33269;DHT22;19640;50.944;5.260;2022-08-01T07:06:21;21.70;99.90
33269;DHT22;19640;50.944;5.260;2022-08-01T07:08:47;21.50;99.90
33269;DHT22;19640;50.944;5.260;2022-08-01T07:11:13;21.90;99.90
33269;DHT22;19640;50.944;5.260;2022-08-01T07:13:39;22.30;99.90
33269;DHT22;19640;50.944;5.260;2022-08-01T07:16:04;22.80;99.90
33269;DHT22;19640;50.944;5.260;2022-08-01T07:18:30;23.40;99.90
33269;DHT22;19640;50.944;5.260;2022-08-01T07:20:55;24.30;99.90
33269;DHT22;19640;50.944;5.260;2022-08-01T07:23:21;24.60;99.90
33269;DHT22;19640;50.944;5.260;2022-08-01T07:25:47;24.50;99.90
33269;DHT22;19640;50.944;5.260;2022-08-01T07:28:14;24.10;99.90
33269;DHT22;19640;50.944;5.260;2022-08-01T07:30:40;23.90;99.90
33269;DHT22;19640;50.944;5.260;2022-08-01T07:33:07;23.70;99.90
33269;DHT22;19640;50.944;5.260;2022-08-01T07:35:33;23.20;99.90
33269;DHT22;19640;50.944;5.260;2022-08-01T07:37:59;23.10;99.90
33269;DHT22;19640;50.944;5.260;2022-08-01T07:40:25;23.00;99.90
33269;DHT22;19640;50.944;5.260;2022-08-01T07:42:50;23.20;99.90
33269;DHT22;19640;50.944;5.260;2022-08-01T07:45:16;23.10;99.90
33269;DHT22;19640;50.944;5.260;2022-08-01T07:47:42;22.90;99.90
33269;DHT22;19640;50.944;5.260;2022-08-01T07:50:08;22.50;99.90
33269;DHT22;19640;50.944;5.260;2022-08-01T07:52:34;22.70;99.90
33269;DHT22;19640;50.944;5.260;2022-08-01T07:54:59;22.80;99.90
33269;DHT22;19640;50.944;5.260;2022-08-01T07:57:25;22.90;99.90
33269;DHT22;19640;50.944;5.260;2022-08-01T07:59:51;23.10;99.90
33269;DHT22;19640;50.944;5.260;2022-08-01T08:02:17;23.30;99.90
33269;DHT22;19640;50.944;5.260;2022-08-01T08:04:42;23.90;99.90
33269;DHT22;19640;50.944;5.260;2022-08-01T08:07:08;24.00;99.90
33269;DHT22;19640;50.944;5.260;2022-08-01T08:09:34;24.00;99.90
33269;DHT22;19640;50.944;5.260;2022-08-01T08:12:00;23.60;99.90
33269;DHT22;19640;50.944;5.260;2022-08-01T08:14:25;23.30;99.90
33269;DHT22;19640;50.944;5.260;2022-08-01T08:16:51;23.20;99.90
33269;DHT22;19640;50.944;5.260;2022-08-01T08:19:17;23.10;99.90
33269;DHT22;19640;50.944;5.260;2022-08-01T08:21:43;23.20;99.90
33269;DHT22;19640;50.944;5.260;2022-08-01T08:24:10;23.40;99.90
33269;DHT22;19640;50.944;5.260;2022-08-01T08:26:47;23.70;99.90
33269;DHT22;19640;50.944;5.260;2022-08-01T08:29:13;23.90;99.90
33269;DHT22;19640;50.944;5.260;2022-08-01T08:31:39;24.00;99.90
33269;DHT22;19640;50.944;5.260;2022-08-01T08:34:05;24.20;99.90
33269;DHT22;19640;50.944;5.260;2022-08-01T08:36:31;24.50;99.90
33269;DHT22;19640;50.944;5.260;2022-08-01T08:38:59;24.40;99.90
33269;DHT22;19640;50.944;5.260;2022-08-01T08:41:35;24.70;99.90
33269;DHT22;19640;50.944;5.260;2022-08-01T08:44:07;25.40;99.90
33269;DHT22;19640;50.944;5.260;2022-08-01T08:46:34;25.30;99.90
33269;DHT22;19640;50.944;5.260;2022-08-01T08:49:06;25.50;99.90
33269;DHT22;19640;50.944;5.260;2022-08-01T08:51:34;25.60;99.90
33269;DHT22;19640;50.944;5.260;2022-08-01T08:54:00;25.40;99.90
33269;DHT22;19640;50.944;5.260;2022-08-01T08:56:28;25.70;99.90
33269;DHT22;19640;50.944;5.260;2022-08-01T08:59:00;25.20;99.90
33269;DHT22;19640;50.944;5.260;2022-08-01T09:01:26;25.20;99.90
33269;DHT22;19640;50.944;5.260;2022-08-01T09:03:53;25.60;99.90
33269;DHT22;19640;50.944;5.260;2022-08-01T09:06:19;25.80;99.90
33269;DHT22;19640;50.944;5.260;2022-08-01T09:08:45;25.20;99.90
33269;DHT22;19640;50.944;5.260;2022-08-01T09:11:11;25.60;99.90
33269;DHT22;19640;50.944;5.260;2022-08-01T09:13:37;25.90;99.90
33269;DHT22;19640;50.944;5.260;2022-08-01T09:16:04;25.90;99.90
33269;DHT22;19640;50.944;5.260;2022-08-01T09:18:37;25.80;99.90
33269;DHT22;19640;50.944;5.260;2022-08-01T09:23:36;25.40;99.90
33269;DHT22;19640;50.944;5.260;2022-08-01T09:26:08;25.40;99.90
33269;DHT22;19640;50.944;5.260;2022-08-01T09:28:35;25.50;99.90
33269;DHT22;19640;50.944;5.260;2022-08-01T09:31:16;25.60;99.90
33269;DHT22;19640;50.944;5.260;2022-08-01T09:36:19;25.40;99.90
33269;DHT22;19640;50.944;5.260;2022-08-01T09:38:44;25.20;99.90
33269;DHT22;19640;50.944;5.260;2022-08-01T09:41:10;25.00;99.90
33269;DHT22;19640;50.944;5.260;2022-08-01T09:43:37;25.00;99.90
33269;DHT22;19640;50.944;5.260;2022-08-01T09:46:11;25.00;99.90
33269;DHT22;19640;50.944;5.260;2022-08-01T09:48:37;24.90;99.90
33269;DHT22;19640;50.944;5.260;2022-08-01T09:51:05;24.70;99.90
33269;DHT22;19640;50.944;5.260;2022-08-01T09:53:43;25.10;99.90
33269;DHT22;19640;50.944;5.260;2022-08-01T09:56:10;25.30;99.90
33269;DHT22;19640;50.944;5.260;2022-08-01T09:58:49;25.50;99.90
33269;DHT22;19640;50.944;5.260;2022-08-01T10:01:15;25.60;99.90
33269;DHT22;19640;50.944;5.260;2022-08-01T10:03:41;25.60;99.90
33269;DHT22;19640;50.944;5.260;2022-08-01T10:06:20;25.40;99.90
33269;DHT22;19640;50.944;5.260;2022-08-01T10:08:47;25.20;99.90
33269;DHT22;19640;50.944;5.260;2022-08-01T10:11:13;24.90;99.90
33269;DHT22;19640;50.944;5.260;2022-08-01T10:13:39;24.80;99.90
33269;DHT22;19640;50.944;5.260;2022-08-01T10:16:06;25.00;99.90
33269;DHT22;19640;50.944;5.260;2022-08-01T10:18:33;25.20;99.90
33269;DHT22;19640;50.944;5.260;2022-08-01T10:21:01;25.10;99.90
33269;DHT22;19640;50.944;5.260;2022-08-01T10:23:27;25.00;99.90
33269;DHT22;19640;50.944;5.260;2022-08-01T10:25:57;24.50;99.90
33269;DHT22;19640;50.944;5.260;2022-08-01T10:28:25;24.90;99.90
33269;DHT22;19640;50.944;5.260;2022-08-01T10:30:51;25.30;99.90
33269;DHT22;19640;50.944;5.260;2022-08-01T10:33:18;25.00;99.90
33269;DHT22;19640;50.944;5.260;2022-08-01T10:35:45;25.10;99.90
33269;DHT22;19640;50.944;5.260;2022-08-01T10:38:11;24.60;99.90
33269;DHT22;19640;50.944;5.260;2022-08-01T10:40:37;24.60;99.90
33269;DHT22;19640;50.944;5.260;2022-08-01T10:43:03;25.20;99.90
33269;DHT22;19640;50.944;5.260;2022-08-01T10:45:30;25.30;99.90
33269;DHT22;19640;50.944;5.260;2022-08-01T10:50:44;26.00;99.90
33269;DHT22;19640;50.944;5.260;2022-08-01T10:53:16;26.00;99.90
33269;DHT22;19640;50.944;5.260;2022-08-01T10:55:59;25.90;99.90
33269;DHT22;19640;50.944;5.260;2022-08-01T10:58:34;25.80;99.90
33269;DHT22;19640;50.944;5.260;2022-08-01T11:01:15;25.90;99.90
33269;DHT22;19640;50.944;5.260;2022-08-01T11:04:05;25.90;99.90
33269;DHT22;19640;50.944;5.260;2022-08-01T11:09:01;25.60;99.90
33269;DHT22;19640;50.944;5.260;2022-08-01T11:11:27;25.90;99.90
33269;DHT22;19640;50.944;5.260;2022-08-01T11:16:31;25.50;99.90
33269;DHT22;19640;50.944;5.260;2022-08-01T11:18:58;25.40;99.90
33269;DHT22;19640;50.944;5.260;2022-08-01T11:21:57;25.40;99.90
33269;DHT22;19640;50.944;5.260;2022-08-01T11:29:43;26.00;99.90
33269;DHT22;19640;50.944;5.260;2022-08-01T11:32:26;26.00;99.90
33269;DHT22;19640;50.944;5.260;2022-08-01T11:34:53;26.00;99.90
33269;DHT22;19640;50.944;5.260;2022-08-01T11:37:27;25.90;99.90
33269;DHT22;19640;50.944;5.260;2022-08-01T11:42:41;26.30;99.90
33269;DHT22;19640;50.944;5.260;2022-08-01T11:45:07;26.50;99.90
33269;DHT22;19640;50.944;5.260;2022-08-01T11:47:53;26.70;99.90
33269;DHT22;19640;50.944;5.260;2022-08-01T11:50:31;26.60;99.90
33269;DHT22;19640;50.944;5.260;2022-08-01T11:53:07;26.50;99.90
33269;DHT22;19640;50.944;5.260;2022-08-01T11:55:34;26.40;99.90
33269;DHT22;19640;50.944;5.260;2022-08-01T11:58:07;26.50;99.90
33269;DHT22;19640;50.944;5.260;2022-08-01T12:00:33;26.50;99.90
33269;DHT22;19640;50.944;5.260;2022-08-01T12:03:04;26.80;99.90
33269;DHT22;19640;50.944;5.260;2022-08-01T12:05:31;26.90;99.90
33269;DHT22;19640;50.944;5.260;2022-08-01T12:07:59;26.90;99.90
33269;DHT22;19640;50.944;5.260;2022-08-01T12:10:27;27.00;97.80
33269;DHT22;19640;50.944;5.260;2022-08-01T12:13:00;26.70;98.10
33269;DHT22;19640;50.944;5.260;2022-08-01T12:15:33;26.70;99.90
33269;DHT22;19640;50.944;5.260;2022-08-01T12:18:01;26.60;99.70
33269;DHT22;19640;50.944;5.260;2022-08-01T12:20:37;26.60;99.90
33269;DHT22;19640;50.944;5.260;2022-08-01T12:23:07;26.20;99.90
33269;DHT22;19640;50.944;5.260;2022-08-01T12:25:34;26.30;99.90
33269;DHT22;19640;50.944;5.260;2022-08-01T12:28:01;26.50;99.90
33269;DHT22;19640;50.944;5.260;2022-08-01T12:30:27;26.90;99.00
33269;DHT22;19640;50.944;5.260;2022-08-01T12:32:56;26.90;99.60
33269;DHT22;19640;50.944;5.260;2022-08-01T12:35:28;26.90;98.70
33269;DHT22;19640;50.944;5.260;2022-08-01T12:40:31;26.60;99.00
33269;DHT22;19640;50.944;5.260;2022-08-01T12:43:06;26.60;99.90
33269;DHT22;19640;50.944;5.260;2022-08-01T12:45:45;26.50;99.00
33269;DHT22;19640;50.944;5.260;2022-08-01T12:48:14;26.40;99.10
33269;DHT22;19640;50.944;5.260;2022-08-01T12:50:43;26.50;99.90
33269;DHT22;19640;50.944;5.260;2022-08-01T12:53:10;26.80;98.40
33269;DHT22;19640;50.944;5.260;2022-08-01T12:55:47;26.90;98.60
33269;DHT22;19640;50.944;5.260;2022-08-01T12:58:14;26.80;98.40
33269;DHT22;19640;50.944;5.260;2022-08-01T13:00:41;26.90;97.10
33269;DHT22;19640;50.944;5.260;2022-08-01T13:03:18;26.90;99.00
33269;DHT22;19640;50.944;5.260;2022-08-01T13:08:24;26.70;98.30
33269;DHT22;19640;50.944;5.260;2022-08-01T13:10:55;26.80;96.00
33269;DHT22;19640;50.944;5.260;2022-08-01T13:13:38;26.70;97.20
33269;DHT22;19640;50.944;5.260;2022-08-01T13:16:05;26.90;96.50
33269;DHT22;19640;50.944;5.260;2022-08-01T13:18:33;26.90;98.30
33269;DHT22;19640;50.944;5.260;2022-08-01T13:21:15;26.90;98.70
33269;DHT22;19640;50.944;5.260;2022-08-01T13:23:42;27.20;96.50
33269;DHT22;19640;50.944;5.260;2022-08-01T13:26:08;27.20;97.30
33269;DHT22;19640;50.944;5.260;2022-08-01T13:28:34;27.00;97.20
33269;DHT22;19640;50.944;5.260;2022-08-01T13:31:04;26.70;98.20
33269;DHT22;19640;50.944;5.260;2022-08-01T13:33:42;26.80;99.30
33269;DHT22;19640;50.944;5.260;2022-08-01T13:36:09;27.00;98.00
33269;DHT22;19640;50.944;5.260;2022-08-01T13:38:34;27.20;97.30
33269;DHT22;19640;50.944;5.260;2022-08-01T13:41:18;27.30;96.40
33269;DHT22;19640;50.944;5.260;2022-08-01T13:43:44;27.10;96.90
33269;DHT22;19640;50.944;5.260;2022-08-01T13:46:10;27.20;97.40
33269;DHT22;19640;50.944;5.260;2022-08-01T13:48:35;27.20;97.00
33269;DHT22;19640;50.944;5.260;2022-08-01T13:51:01;27.00;96.30
33269;DHT22;19640;50.944;5.260;2022-08-01T13:53:28;26.90;97.70
33269;DHT22;19640;50.944;5.260;2022-08-01T13:55:53;26.90;96.60
33269;DHT22;19640;50.944;5.260;2022-08-01T13:58:19;27.00;98.10
33269;DHT22;19640;50.944;5.260;2022-08-01T14:00:45;27.20;98.30
33269;DHT22;19640;50.944;5.260;2022-08-01T14:03:12;27.20;95.70
33269;DHT22;19640;50.944;5.260;2022-08-01T14:05:37;27.30;97.00
33269;DHT22;19640;50.944;5.260;2022-08-01T14:08:03;26.70;97.40
33269;DHT22;19640;50.944;5.260;2022-08-01T14:10:29;26.70;98.60
33269;DHT22;19640;50.944;5.260;2022-08-01T14:12:55;26.70;99.60
33269;DHT22;19640;50.944;5.260;2022-08-01T14:15:21;26.70;99.50
33269;DHT22;19640;50.944;5.260;2022-08-01T14:17:47;26.40;99.90
33269;DHT22;19640;50.944;5.260;2022-08-01T14:20:13;26.90;98.50
33269;DHT22;19640;50.944;5.260;2022-08-01T14:22:38;26.70;98.00
33269;DHT22;19640;50.944;5.260;2022-08-01T14:25:06;26.40;99.20
33269;DHT22;19640;50.944;5.260;2022-08-01T14:27:32;26.30;99.50
33269;DHT22;19640;50.944;5.260;2022-08-01T14:30:02;26.60;99.70
33269;DHT22;19640;50.944;5.260;2022-08-01T14:32:28;26.60;99.90
33269;DHT22;19640;50.944;5.260;2022-08-01T14:34:54;26.90;99.20
33269;DHT22;19640;50.944;5.260;2022-08-01T14:37:20;27.00;97.90
33269;DHT22;19640;50.944;5.260;2022-08-01T14:39:46;27.00;99.00
33269;DHT22;19640;50.944;5.260;2022-08-01T14:42:12;27.10;97.90
33269;DHT22;19640;50.944;5.260;2022-08-01T14:44:37;27.30;98.90
33269;DHT22;19640;50.944;5.260;2022-08-01T14:47:06;27.20;97.70
33269;DHT22;19640;50.944;5.260;2022-08-01T14:49:31;27.10;98.30
33269;DHT22;19640;50.944;5.260;2022-08-01T14:51:57;27.00;98.60
33269;DHT22;19640;50.944;5.260;2022-08-01T14:54:23;27.30;97.20
33269;DHT22;19640;50.944;5.260;2022-08-01T14:56:49;27.20;97.00
33269;DHT22;19640;50.944;5.260;2022-08-01T14:59:14;27.10;97.20
33269;DHT22;19640;50.944;5.260;2022-08-01T15:01:40;27.00;98.80
33269;DHT22;19640;50.944;5.260;2022-08-01T15:04:06;26.70;98.30
33269;DHT22;19640;50.944;5.260;2022-08-01T15:06:31;26.70;97.70
33269;DHT22;19640;50.944;5.260;2022-08-01T15:08:57;26.90;97.00
33269;DHT22;19640;50.944;5.260;2022-08-01T15:11:23;27.20;96.50
33269;DHT22;19640;50.944;5.260;2022-08-01T15:13:48;27.20;96.70
33269;DHT22;19640;50.944;5.260;2022-08-01T15:16:37;27.10;97.20
33269;DHT22;19640;50.944;5.260;2022-08-01T15:19:03;26.80;96.90
33269;DHT22;19640;50.944;5.260;2022-08-01T15:21:29;26.90;98.10
33269;DHT22;19640;50.944;5.260;2022-08-01T15:23:54;27.00;97.10
33269;DHT22;19640;50.944;5.260;2022-08-01T15:26:20;27.10;97.10
33269;DHT22;19640;50.944;5.260;2022-08-01T15:28:46;27.20;97.70
33269;DHT22;19640;50.944;5.260;2022-08-01T15:31:12;27.30;96.30
33269;DHT22;19640;50.944;5.260;2022-08-01T15:33:38;27.20;97.00
33269;DHT22;19640;50.944;5.260;2022-08-01T15:36:04;26.80;97.50
33269;DHT22;19640;50.944;5.260;2022-08-01T15:38:29;26.70;98.10
33269;DHT22;19640;50.944;5.260;2022-08-01T15:40:55;26.70;97.00
33269;DHT22;19640;50.944;5.260;2022-08-01T15:43:20;26.30;97.90
33269;DHT22;19640;50.944;5.260;2022-08-01T15:45:46;26.50;98.10
33269;DHT22;19640;50.944;5.260;2022-08-01T15:48:12;26.30;97.60
33269;DHT22;19640;50.944;5.260;2022-08-01T15:50:37;26.90;96.50
33269;DHT22;19640;50.944;5.260;2022-08-01T15:53:03;27.30;96.10
33269;DHT22;19640;50.944;5.260;2022-08-01T15:55:29;27.50;95.30
33269;DHT22;19640;50.944;5.260;2022-08-01T15:57:55;27.40;95.90
33269;DHT22;19640;50.944;5.260;2022-08-01T16:00:21;27.40;95.50
33269;DHT22;19640;50.944;5.260;2022-08-01T16:02:46;27.20;96.30
33269;DHT22;19640;50.944;5.260;2022-08-01T16:05:12;27.20;96.40
33269;DHT22;19640;50.944;5.260;2022-08-01T16:07:38;27.00;97.40
33269;DHT22;19640;50.944;5.260;2022-08-01T16:10:05;26.90;98.30
33269;DHT22;19640;50.944;5.260;2022-08-01T16:12:31;27.00;97.30
33269;DHT22;19640;50.944;5.260;2022-08-01T16:14:57;27.00;97.20
33269;DHT22;19640;50.944;5.260;2022-08-01T16:17:23;27.20;96.80
33269;DHT22;19640;50.944;5.260;2022-08-01T16:19:48;27.00;97.40
33269;DHT22;19640;50.944;5.260;2022-08-01T16:22:15;26.80;97.70